createdAt,value
2018-05-16T00:01:05.476Z,12.98
2018-05-16T00:03:32.952Z,12.98
2018-05-16T00:06:00.433Z,13.01
2018-05-16T00:08:27.950Z,13.01
2018-05-16T00:10:55.431Z,12.93
2018-05-16T00:13:22.892Z,12.91
2018-05-16T00:15:50.457Z,12.89
2018-05-16T00:18:17.974Z,12.84
2018-05-16T00:20:45.487Z,12.76
2018-05-16T00:23:12.993Z,12.73
2018-05-16T00:25:40.482Z,12.74
2018-05-16T00:28:08.000Z,12.67
2018-05-16T00:30:35.601Z,12.64
2018-05-16T00:33:03.108Z,12.60
2018-05-16T00:35:30.628Z,12.58
2018-05-16T00:37:58.095Z,12.54
2018-05-16T00:40:25.564Z,12.52
2018-05-16T00:42:53.097Z,12.52
2018-05-16T00:45:20.594Z,12.54
2018-05-16T00:47:48.077Z,12.55
2018-05-16T00:50:15.549Z,12.52
2018-05-16T00:52:43.092Z,12.52
2018-05-16T00:55:10.556Z,12.53
2018-05-16T00:57:38.062Z,12.53
2018-05-16T01:00:05.523Z,12.54
2018-05-16T01:02:33.033Z,12.55
2018-05-16T01:05:00.526Z,12.55
2018-05-16T01:07:28.033Z,12.56
2018-05-16T01:09:55.525Z,12.57
2018-05-16T01:12:23.031Z,12.56
2018-05-16T01:14:50.635Z,12.53
2018-05-16T01:17:18.175Z,12.52
2018-05-16T01:19:45.731Z,12.47
2018-05-16T01:22:13.198Z,12.46
2018-05-16T01:24:40.682Z,12.45
2018-05-16T01:27:08.181Z,12.45
2018-05-16T01:29:35.656Z,12.45
2018-05-16T01:32:03.161Z,12.45
2018-05-16T01:34:30.631Z,12.45
2018-05-16T01:36:58.092Z,12.49
2018-05-16T01:39:25.590Z,12.47
2018-05-16T01:41:53.074Z,12.44
2018-05-16T01:44:20.644Z,12.40
2018-05-16T01:46:48.136Z,12.40
2018-05-16T01:49:20.655Z,12.39
2018-05-16T01:51:48.116Z,12.37
2018-05-16T01:54:15.575Z,12.36
2018-05-16T01:56:43.073Z,12.34
2018-05-16T01:59:10.570Z,12.35
2018-05-16T02:01:38.097Z,12.33
2018-05-16T02:04:05.580Z,12.32
2018-05-16T02:06:33.032Z,12.33
2018-05-16T02:09:00.535Z,12.34
2018-05-16T02:11:28.020Z,12.34
2018-05-16T02:13:55.560Z,12.32
2018-05-16T02:16:23.056Z,12.33
2018-05-16T02:18:50.536Z,12.33
2018-05-16T02:21:18.003Z,12.34
2018-05-16T02:23:45.460Z,12.35
2018-05-16T02:26:12.982Z,12.34
2018-05-16T02:28:40.448Z,12.37
2018-05-16T02:31:07.918Z,12.36
2018-05-16T02:33:35.391Z,12.36
2018-05-16T02:36:02.887Z,12.32
2018-05-16T02:38:30.380Z,12.29
2018-05-16T02:40:57.883Z,12.27
2018-05-16T02:43:25.372Z,12.26
2018-05-16T02:45:52.829Z,12.24
2018-05-16T02:48:20.326Z,12.25
2018-05-16T02:50:47.803Z,12.28
2018-05-16T02:53:15.277Z,12.23
2018-05-16T02:55:42.812Z,12.23
2018-05-16T02:58:10.311Z,12.22
2018-05-16T03:00:37.785Z,12.24
2018-05-16T03:03:05.316Z,12.27
2018-05-16T03:05:34.731Z,12.26
2018-05-16T03:08:02.247Z,12.23
2018-05-16T03:10:29.835Z,12.24
2018-05-16T03:12:57.341Z,12.27
2018-05-16T03:15:24.897Z,12.29
2018-05-16T03:17:52.390Z,12.33
2018-05-16T03:20:19.965Z,12.35
2018-05-16T03:22:47.448Z,12.34
2018-05-16T03:25:14.905Z,12.34
2018-05-16T03:27:42.389Z,12.37
2018-05-16T03:30:09.875Z,12.28
2018-05-16T03:32:37.453Z,12.29
2018-05-16T03:35:04.983Z,12.32
2018-05-16T03:37:32.536Z,12.35
2018-05-16T03:40:00.001Z,12.35
2018-05-16T03:42:27.492Z,12.41
2018-05-16T03:44:54.995Z,12.43
2018-05-16T03:47:22.482Z,12.46
2018-05-16T03:49:50.059Z,12.46
2018-05-16T03:52:17.582Z,12.46
2018-05-16T03:54:45.052Z,12.50
2018-05-16T03:57:24.378Z,12.55
2018-05-16T04:00:03.862Z,12.56
2018-05-16T04:02:43.287Z,12.58
2018-05-16T04:05:10.788Z,12.64
2018-05-16T04:07:38.275Z,12.69
2018-05-16T04:10:05.774Z,12.73
2018-05-16T04:12:33.268Z,12.82
2018-05-16T04:15:00.758Z,12.89
2018-05-16T04:17:28.222Z,12.93
2018-05-16T04:19:55.690Z,12.96
2018-05-16T04:22:23.233Z,13.02
2018-05-16T04:24:50.717Z,13.03
2018-05-16T04:27:18.240Z,13.18
2018-05-16T04:29:45.717Z,13.29
2018-05-16T04:32:13.283Z,13.37
2018-05-16T04:34:40.859Z,13.45
2018-05-16T04:37:08.364Z,13.46
2018-05-16T04:39:35.854Z,13.44
2018-05-16T04:42:03.357Z,13.45
2018-05-16T04:44:30.816Z,13.49
2018-05-16T04:46:58.409Z,13.59
2018-05-16T04:49:25.911Z,13.61
2018-05-16T04:51:53.375Z,13.58
2018-05-16T04:54:20.835Z,13.55
2018-05-16T04:56:48.294Z,13.49
2018-05-16T04:59:15.830Z,13.47
2018-05-16T05:01:43.339Z,13.53
2018-05-16T05:04:10.791Z,13.60
2018-05-16T05:06:38.271Z,13.68
2018-05-16T05:09:05.749Z,13.75
2018-05-16T05:11:33.211Z,13.95
2018-05-16T05:14:00.684Z,14.09
2018-05-16T05:16:28.152Z,14.25
2018-05-16T05:18:55.651Z,14.47
2018-05-16T05:21:23.225Z,14.75
2018-05-16T05:23:50.683Z,14.82
2018-05-16T05:26:18.165Z,14.69
2018-05-16T05:28:45.623Z,14.72
2018-05-16T05:31:13.159Z,14.75
2018-05-16T05:33:40.761Z,14.85
2018-05-16T05:36:08.603Z,14.95
2018-05-16T05:38:36.122Z,15.01
2018-05-16T05:41:03.701Z,14.95
2018-05-16T05:43:31.195Z,15.00
2018-05-16T05:45:58.703Z,14.99
2018-05-16T05:48:26.277Z,14.87
2018-05-16T05:50:53.965Z,14.87
2018-05-16T05:53:21.522Z,15.04
2018-05-16T05:55:49.042Z,15.10
2018-05-16T05:58:16.573Z,15.24
2018-05-16T06:00:44.094Z,15.53
2018-05-16T06:03:11.627Z,15.65
2018-05-16T06:05:39.131Z,15.46
2018-05-16T06:08:06.606Z,15.28
2018-05-16T06:10:34.117Z,15.49
2018-05-16T06:13:01.610Z,15.70
2018-05-16T06:15:29.350Z,15.91
2018-05-16T06:17:56.876Z,15.93
2018-05-16T06:20:26.217Z,15.83
2018-05-16T06:22:53.788Z,15.43
2018-05-16T06:25:21.271Z,15.19
2018-05-16T06:27:48.731Z,15.10
2018-05-16T06:30:16.236Z,14.99
2018-05-16T06:32:43.730Z,14.95
2018-05-16T06:35:11.209Z,15.01
2018-05-16T06:37:38.704Z,15.04
2018-05-16T06:40:06.205Z,15.16
2018-05-16T06:42:33.703Z,15.42
2018-05-16T06:45:01.406Z,15.60
2018-05-16T06:47:29.208Z,15.79
2018-05-16T06:49:56.872Z,15.90
2018-05-16T06:52:24.493Z,16.14
2018-05-16T06:54:51.986Z,16.39
2018-05-16T06:57:19.452Z,16.54
2018-05-16T06:59:46.927Z,16.58
2018-05-16T07:02:14.457Z,16.77
2018-05-16T07:04:41.950Z,17.06
2018-05-16T07:07:09.444Z,17.39
2018-05-16T07:09:36.966Z,17.51
2018-05-16T07:12:04.559Z,17.67
2018-05-16T07:14:32.056Z,17.62
2018-05-16T07:16:59.536Z,17.55
2018-05-16T07:19:26.988Z,17.39
2018-05-16T07:21:54.555Z,17.39
2018-05-16T07:24:22.068Z,17.59
2018-05-16T07:26:49.536Z,17.61
2018-05-16T07:29:17.015Z,17.77
2018-05-16T07:31:44.474Z,18.01
2018-05-16T07:34:11.983Z,18.03
2018-05-16T07:36:39.477Z,18.35
2018-05-16T07:39:06.940Z,18.62
2018-05-16T07:41:34.462Z,18.92
2018-05-16T07:44:02.192Z,18.91
2018-05-16T07:46:29.797Z,18.84
2018-05-16T07:48:57.304Z,19.07
2018-05-16T07:51:24.855Z,19.19
2018-05-16T07:53:52.328Z,19.00
2018-05-16T07:56:19.876Z,18.82
2018-05-16T07:58:47.439Z,18.62
2018-05-16T08:01:15.043Z,18.76
2018-05-16T08:03:42.604Z,19.09
2018-05-16T08:06:10.093Z,19.59
2018-05-16T08:08:37.555Z,19.86
2018-05-16T08:11:05.049Z,19.71
2018-05-16T08:13:32.544Z,19.48
2018-05-16T08:16:00.030Z,19.23
2018-05-16T08:18:27.528Z,19.10
2018-05-16T08:20:55.015Z,18.94
2018-05-16T08:23:22.560Z,18.95
2018-05-16T08:25:50.060Z,19.05
2018-05-16T08:28:17.583Z,19.31
2018-05-16T08:30:45.093Z,19.54
2018-05-16T08:33:12.551Z,19.78
2018-05-16T08:35:40.023Z,19.93
2018-05-16T08:38:07.521Z,19.98
2018-05-16T08:40:35.027Z,20.02
2018-05-16T08:43:02.608Z,20.21
2018-05-16T08:45:30.433Z,20.48
2018-05-16T08:47:58.073Z,20.53
2018-05-16T08:50:25.673Z,20.56
2018-05-16T08:52:53.159Z,20.37
2018-05-16T08:55:20.788Z,20.47
2018-05-16T08:57:48.268Z,20.41
2018-05-16T09:00:15.764Z,20.06
2018-05-16T09:02:43.424Z,19.70
2018-05-16T09:05:10.880Z,19.58
2018-05-16T09:07:38.389Z,19.64
2018-05-16T09:10:05.947Z,19.78
2018-05-16T09:12:33.412Z,19.78
2018-05-16T09:15:00.904Z,19.67
2018-05-16T09:17:28.417Z,19.64
2018-05-16T09:19:55.924Z,19.72
2018-05-16T09:22:23.408Z,19.85
2018-05-16T09:24:50.913Z,19.85
2018-05-16T09:27:18.441Z,19.79
2018-05-16T09:29:45.903Z,19.78
2018-05-16T09:32:13.423Z,19.96
2018-05-16T09:34:40.920Z,20.22
2018-05-16T09:37:08.411Z,20.20
2018-05-16T09:39:35.940Z,19.88
2018-05-16T09:42:03.397Z,19.94
2018-05-16T09:44:30.930Z,20.17
2018-05-16T09:46:58.422Z,20.10
2018-05-16T09:49:25.941Z,20.05
2018-05-16T09:51:53.430Z,19.99
2018-05-16T09:54:20.949Z,19.98
2018-05-16T09:56:48.454Z,20.17
2018-05-16T09:59:15.954Z,20.49
2018-05-16T10:01:43.509Z,20.86
2018-05-16T10:04:12.821Z,21.06
2018-05-16T10:06:40.311Z,21.13
2018-05-16T10:09:07.825Z,21.33
2018-05-16T10:11:35.303Z,21.70
2018-05-16T10:14:02.846Z,21.72
2018-05-16T10:16:30.339Z,21.67
2018-05-16T10:18:57.833Z,21.72
2018-05-16T10:21:25.312Z,21.59
2018-05-16T10:23:52.902Z,21.47
2018-05-16T10:26:20.375Z,21.47
2018-05-16T10:28:47.885Z,21.58
2018-05-16T10:31:15.374Z,21.63
2018-05-16T10:33:42.981Z,21.47
2018-05-16T10:36:10.457Z,21.23
2018-05-16T10:38:38.017Z,21.15
2018-05-16T10:41:05.569Z,20.90
2018-05-16T10:43:33.107Z,20.77
2018-05-16T10:46:00.686Z,20.70
2018-05-16T10:48:28.196Z,20.79
2018-05-16T10:50:55.687Z,20.84
2018-05-16T10:53:23.161Z,21.07
2018-05-16T10:55:50.611Z,21.25
2018-05-16T10:58:18.134Z,21.30
2018-05-16T11:00:45.695Z,21.28
2018-05-16T11:03:13.348Z,21.26
2018-05-16T11:05:40.807Z,21.39
2018-05-16T11:08:08.274Z,21.42
2018-05-16T11:10:35.838Z,21.44
2018-05-16T11:13:03.253Z,21.52
2018-05-16T11:15:30.784Z,21.57
2018-05-16T11:17:58.328Z,21.44
2018-05-16T11:20:25.837Z,21.53
2018-05-16T11:22:53.353Z,21.98
2018-05-16T11:25:20.845Z,22.36
2018-05-16T11:27:48.361Z,22.39
2018-05-16T11:30:15.870Z,22.60
2018-05-16T11:32:43.336Z,22.76
2018-05-16T11:35:10.830Z,22.88
2018-05-16T11:37:38.373Z,22.43
2018-05-16T11:40:05.874Z,22.09
2018-05-16T11:42:33.341Z,21.84
2018-05-16T11:45:00.809Z,22.05
2018-05-16T11:47:28.385Z,22.28
2018-05-16T11:49:55.874Z,22.32
2018-05-16T11:52:23.388Z,22.54
2018-05-16T11:54:50.854Z,22.54
2018-05-16T11:57:18.304Z,22.42
2018-05-16T11:59:45.787Z,22.29
2018-05-16T12:02:13.243Z,22.15
2018-05-16T12:04:40.706Z,22.19
2018-05-16T12:07:08.173Z,22.16
2018-05-16T12:09:35.664Z,22.19
2018-05-16T12:12:03.163Z,22.08
2018-05-16T12:14:30.666Z,22.03
2018-05-16T12:16:58.202Z,22.39
2018-05-16T12:19:25.961Z,22.49
2018-05-16T12:21:53.563Z,22.48
2018-05-16T12:24:21.013Z,22.72
2018-05-16T12:26:48.653Z,23.21
2018-05-16T12:29:16.123Z,23.44
2018-05-16T12:31:43.633Z,23.50
2018-05-16T12:34:11.379Z,23.70
2018-05-16T12:36:38.959Z,23.45
2018-05-16T12:39:09.256Z,23.18
2018-05-16T12:41:36.741Z,22.85
2018-05-16T12:44:04.229Z,22.69
2018-05-16T12:46:31.728Z,22.42
2018-05-16T12:48:59.272Z,22.51
2018-05-16T12:51:26.824Z,22.84
2018-05-16T12:53:54.308Z,23.10
2018-05-16T12:56:21.764Z,23.09
2018-05-16T12:58:49.275Z,22.84
2018-05-16T13:01:16.819Z,22.87
2018-05-16T13:03:44.281Z,22.83
2018-05-16T13:06:11.843Z,22.75
2018-05-16T13:08:39.346Z,22.92
2018-05-16T13:11:06.892Z,23.16
2018-05-16T13:13:34.445Z,23.35
2018-05-16T13:16:01.900Z,23.45
2018-05-16T13:18:29.488Z,23.26
2018-05-16T13:20:57.030Z,23.01
2018-05-16T13:23:24.480Z,22.97
2018-05-16T13:25:51.992Z,22.83
2018-05-16T13:28:19.467Z,22.84
2018-05-16T13:30:47.028Z,22.74
2018-05-16T13:33:14.526Z,22.78
2018-05-16T13:35:42.122Z,22.84
2018-05-16T13:38:09.563Z,23.20
2018-05-16T13:40:37.043Z,23.35
2018-05-16T13:43:04.648Z,23.80
2018-05-16T13:45:32.094Z,24.03
2018-05-16T13:47:59.547Z,23.78
2018-05-16T13:50:27.072Z,23.53
2018-05-16T13:52:54.531Z,23.67
2018-05-16T13:55:22.012Z,23.77
2018-05-16T13:57:49.569Z,23.76
2018-05-16T14:00:17.143Z,23.56
2018-05-16T14:02:44.688Z,23.64
2018-05-16T14:05:12.229Z,23.71
2018-05-16T14:07:39.682Z,23.50
2018-05-16T14:10:07.159Z,23.40
2018-05-16T14:12:34.689Z,23.39
2018-05-16T14:15:02.146Z,23.29
2018-05-16T14:17:29.645Z,22.71
2018-05-16T14:19:57.151Z,22.68
2018-05-16T14:22:24.681Z,22.49
2018-05-16T14:24:52.204Z,22.25
2018-05-16T14:27:19.695Z,22.44
2018-05-16T14:29:47.156Z,22.81
2018-05-16T14:32:14.620Z,23.22
2018-05-16T14:34:42.111Z,23.27
2018-05-16T14:37:09.602Z,23.21
2018-05-16T14:39:37.044Z,23.46
2018-05-16T14:42:04.524Z,23.66
2018-05-16T14:44:31.996Z,23.60
2018-05-16T14:46:59.496Z,23.31
2018-05-16T14:49:26.975Z,22.74
2018-05-16T14:51:54.440Z,22.52
2018-05-16T14:54:22.756Z,22.59
2018-05-16T14:56:50.653Z,22.51
2018-05-16T14:59:18.127Z,22.84
2018-05-16T15:01:45.652Z,22.68
2018-05-16T15:04:13.176Z,22.20
2018-05-16T15:06:40.626Z,21.96
2018-05-16T15:09:08.178Z,21.76
2018-05-16T15:11:35.662Z,22.22
2018-05-16T15:14:03.127Z,22.97
2018-05-16T15:16:30.581Z,23.72
2018-05-16T15:18:58.034Z,23.52
2018-05-16T15:21:25.558Z,23.40
2018-05-16T15:23:53.003Z,23.76
2018-05-16T15:26:20.462Z,23.59
2018-05-16T15:28:47.908Z,23.39
2018-05-16T15:31:15.533Z,23.38
2018-05-16T15:33:43.069Z,23.34
2018-05-16T15:36:10.553Z,23.42
2018-05-16T15:38:38.064Z,23.45
2018-05-16T15:41:05.521Z,23.26
2018-05-16T15:43:33.099Z,23.14
2018-05-16T15:46:00.560Z,23.38
2018-05-16T15:48:28.037Z,23.79
2018-05-16T15:50:55.559Z,23.90
2018-05-16T15:53:23.156Z,23.33
2018-05-16T15:55:50.640Z,23.00
2018-05-16T15:58:18.166Z,22.43
2018-05-16T16:00:45.615Z,21.84
2018-05-16T16:03:13.193Z,21.49
2018-05-16T16:05:40.739Z,21.42
2018-05-16T16:08:08.374Z,21.44
2018-05-16T16:10:35.850Z,21.33
2018-05-16T16:13:03.312Z,21.39
2018-05-16T16:15:30.837Z,21.37
2018-05-16T16:17:58.295Z,21.33
2018-05-16T16:20:25.813Z,21.27
2018-05-16T16:22:53.305Z,21.13
2018-05-16T16:25:20.791Z,21.09
2018-05-16T16:27:48.286Z,20.95
2018-05-16T16:30:15.769Z,21.05
2018-05-16T16:32:43.269Z,21.14
2018-05-16T16:35:10.736Z,21.27
2018-05-16T16:37:38.267Z,21.35
2018-05-16T16:40:05.762Z,21.40
2018-05-16T16:42:33.260Z,21.48
2018-05-16T16:45:00.711Z,21.74
2018-05-16T16:47:28.188Z,21.90
2018-05-16T16:49:55.669Z,22.00
2018-05-16T16:52:23.166Z,22.14
2018-05-16T16:54:50.674Z,21.87
2018-05-16T16:57:18.297Z,21.75
2018-05-16T16:59:45.684Z,21.49
2018-05-16T17:02:13.181Z,21.32
2018-05-16T17:04:40.705Z,21.25
2018-05-16T17:07:08.215Z,21.24
2018-05-16T17:09:35.682Z,21.17
2018-05-16T17:12:03.161Z,21.17
2018-05-16T17:14:30.655Z,21.00
2018-05-16T17:16:58.152Z,20.88
2018-05-16T17:19:25.691Z,20.80
2018-05-16T17:21:53.156Z,20.73
2018-05-16T17:24:20.732Z,20.73
2018-05-16T17:26:48.217Z,20.69
2018-05-16T17:29:15.714Z,20.66
2018-05-16T17:31:43.274Z,20.68
2018-05-16T17:34:10.826Z,20.70
2018-05-16T17:36:38.358Z,20.68
2018-05-16T17:39:05.865Z,20.52
2018-05-16T17:41:33.323Z,20.40
2018-05-16T17:44:00.797Z,20.40
2018-05-16T17:46:28.316Z,20.37
2018-05-16T17:48:55.769Z,20.29
2018-05-16T17:51:23.269Z,20.28
2018-05-16T17:53:50.832Z,20.30
2018-05-16T17:56:18.208Z,20.31
2018-05-16T17:58:45.682Z,20.33
2018-05-16T18:01:13.197Z,20.30
2018-05-16T18:03:40.717Z,20.29
2018-05-16T18:06:08.186Z,20.22
2018-05-16T18:08:35.709Z,20.19
2018-05-16T18:11:03.225Z,20.12
2018-05-16T18:16:45.127Z,20.11
2018-05-16T18:19:12.636Z,20.08
2018-05-16T18:21:40.115Z,20.03
2018-05-16T18:24:07.613Z,20.00
2018-05-16T18:26:35.112Z,19.97
2018-05-16T18:29:02.619Z,19.94
2018-05-16T18:31:30.100Z,19.90
2018-05-16T18:33:57.557Z,19.88
2018-05-16T18:36:25.027Z,19.83
2018-05-16T18:38:52.492Z,19.81
2018-05-16T18:41:19.982Z,19.81
2018-05-16T18:43:47.473Z,19.77
2018-05-16T18:46:14.923Z,19.78
2018-05-16T18:48:42.471Z,19.76
2018-05-16T18:51:10.010Z,19.72
2018-05-16T18:53:37.507Z,19.67
2018-05-16T18:56:05.010Z,19.63
2018-05-16T18:58:32.488Z,19.61
2018-05-16T19:00:59.946Z,19.58
2018-05-16T19:03:27.439Z,19.58
2018-05-16T19:05:54.957Z,19.58
2018-05-16T19:08:22.448Z,19.54
2018-05-16T19:10:49.982Z,19.52
2018-05-16T19:13:17.566Z,19.51
2018-05-16T19:15:45.068Z,19.48
2018-05-16T19:18:12.560Z,19.48
2018-05-16T19:20:40.015Z,19.48
2018-05-16T19:23:07.580Z,19.47
2018-05-16T19:25:35.064Z,19.44
2018-05-16T19:28:02.597Z,19.41
2018-05-16T19:30:30.140Z,19.39
2018-05-16T19:32:57.593Z,19.38
2018-05-16T19:35:25.047Z,19.40
2018-05-16T19:37:52.513Z,19.36
2018-05-16T19:40:20.005Z,19.33
2018-05-16T19:42:47.491Z,19.26
2018-05-16T19:45:14.985Z,19.24
2018-05-16T19:47:42.474Z,19.22
2018-05-16T19:50:09.948Z,19.19
2018-05-16T19:52:37.433Z,19.17
2018-05-16T19:55:04.932Z,19.14
2018-05-16T19:57:32.384Z,19.10
2018-05-16T19:59:59.925Z,19.07
2018-05-16T20:02:27.459Z,19.02
2018-05-16T20:04:54.911Z,19.00
2018-05-16T20:07:22.508Z,18.97
2018-05-16T20:09:50.021Z,18.95
2018-05-16T20:12:17.479Z,18.92
2018-05-16T20:14:45.073Z,18.92
2018-05-16T20:17:12.534Z,18.87
2018-05-16T20:19:40.075Z,18.80
2018-05-16T20:22:07.562Z,18.76
2018-05-16T20:24:35.099Z,18.73
2018-05-16T20:27:02.661Z,18.71
2018-05-16T20:29:30.209Z,18.69
2018-05-16T20:31:57.665Z,18.68
2018-05-16T20:34:25.134Z,18.68
2018-05-16T20:36:52.607Z,18.66
2018-05-16T20:39:20.105Z,18.60
2018-05-16T20:41:47.659Z,18.56
2018-05-16T20:44:15.185Z,18.52
2018-05-16T20:46:42.708Z,18.51
2018-05-16T20:49:10.282Z,18.46
2018-05-16T20:51:38.120Z,18.43
2018-05-16T20:54:05.758Z,18.40
2018-05-16T20:56:33.676Z,18.38
2018-05-16T20:59:01.139Z,18.35
2018-05-16T21:01:28.616Z,18.33
2018-05-16T21:03:56.149Z,18.33
2018-05-16T21:06:23.671Z,18.31
2018-05-16T21:08:51.170Z,18.27
2018-05-16T21:11:18.785Z,18.26
2018-05-16T21:13:46.432Z,18.24
2018-05-16T21:16:13.983Z,18.22
2018-05-16T21:18:41.499Z,18.20
2018-05-16T21:21:09.097Z,18.19
2018-05-16T21:23:36.592Z,18.18
2018-05-16T21:26:04.093Z,18.17
2018-05-16T21:28:31.571Z,18.15
2018-05-16T21:30:59.074Z,18.14
2018-05-16T21:33:26.541Z,18.12
2018-05-16T21:35:54.159Z,18.11
2018-05-16T21:38:21.649Z,18.10
2018-05-16T21:40:49.121Z,18.09
2018-05-16T21:43:16.683Z,18.10
2018-05-16T21:45:44.146Z,18.09
2018-05-16T21:48:11.625Z,18.08
2018-05-16T21:50:39.099Z,18.06
2018-05-16T21:53:06.555Z,18.04
2018-05-16T21:55:34.007Z,18.01
2018-05-16T21:58:01.536Z,17.98
2018-05-16T22:00:29.037Z,17.97
2018-05-16T22:02:56.583Z,17.94
2018-05-16T22:05:24.148Z,17.96
2018-05-16T22:07:51.624Z,17.95
2018-05-16T22:10:19.129Z,17.92
2018-05-16T22:12:46.575Z,17.89
2018-05-16T22:15:14.047Z,17.83
2018-05-16T22:17:41.634Z,17.81
2018-05-16T22:20:09.135Z,17.76
2018-05-16T22:22:36.738Z,17.71
2018-05-16T22:25:04.206Z,17.66
2018-05-16T22:27:31.697Z,17.63
2018-05-16T22:29:59.200Z,17.60
2018-05-16T22:32:32.265Z,17.55
2018-05-16T22:35:05.351Z,17.50
2018-05-16T22:37:38.592Z,17.47
2018-05-16T22:40:11.805Z,17.44
2018-05-16T22:42:38.696Z,17.39
2018-05-16T22:47:57.211Z,17.26
2018-05-16T22:50:24.667Z,17.23
2018-05-16T22:52:52.228Z,17.21
2018-05-16T22:55:19.700Z,17.15
2018-05-16T22:57:47.183Z,17.10
2018-05-16T23:00:14.761Z,17.06
2018-05-16T23:02:42.259Z,17.02
2018-05-16T23:05:09.708Z,16.97
2018-05-16T23:07:37.229Z,16.94
2018-05-16T23:10:04.694Z,16.95
2018-05-16T23:12:32.164Z,16.90
2018-05-16T23:14:59.659Z,16.87
2018-05-16T23:17:27.120Z,16.86
2018-05-16T23:19:54.622Z,16.88
2018-05-16T23:22:22.181Z,16.89
2018-05-16T23:24:49.671Z,16.86
2018-05-16T23:27:17.123Z,16.85
2018-05-16T23:29:44.626Z,16.79
2018-05-16T23:32:12.180Z,16.80
2018-05-16T23:34:39.659Z,16.90
2018-05-16T23:37:07.115Z,16.90
2018-05-16T23:39:34.616Z,16.82
2018-05-16T23:42:02.112Z,16.76
2018-05-16T23:44:29.622Z,16.74
2018-05-16T23:46:57.104Z,16.80
2018-05-16T23:49:24.550Z,16.78
2018-05-16T23:51:51.991Z,16.76
2018-05-16T23:54:19.467Z,16.72
2018-05-16T23:56:46.953Z,16.72
2018-05-16T23:59:14.445Z,16.66
